Wellsburg, North Dakota
Current Conditions -  °F | °C
As of 6:15 PM on Sunday 25 Jan 2015 (Local Time) from K5H4 Reporting Station
Overcast Overcast  
Wind Chill: 23°   Ceiling: 8000
Heat Index: 30°   Visibility: 10mi
Dew Point: 30°   Wind: 7mph
Humidity: 100%   Direction: 190°S
Pressure: 29.85"   Gusts: NA
Location:  47.7822°N, 99.8441°W
Report Text: K5H4 260015Z AUTO 19006KT 10SM OVC080 M01/M01 A2985 RMK AO2
Loading
Personal Weather Stations






























Interactive Weather Map New forecast layout! Learn more

10-Day Weather Forecast

Advertisements
Track Severe Weather on mobile